sensor_id;sensor_type;location;lat;lon;timestamp;temperature;humidity
83660;SHT30;73632;50.808;3.422;2023-11-19T00:01:26;13.50;89.73
83660;SHT30;73632;50.808;3.422;2023-11-19T00:03:51;13.43;90.07
83660;SHT30;73632;50.808;3.422;2023-11-19T00:06:17;13.42;89.94
83660;SHT30;73632;50.808;3.422;2023-11-19T00:08:42;13.46;89.65
83660;SHT30;73632;50.808;3.422;2023-11-19T00:11:09;13.49;89.38
83660;SHT30;73632;50.808;3.422;2023-11-19T00:13:34;13.43;89.67
83660;SHT30;73632;50.808;3.422;2023-11-19T00:16:00;13.40;89.69
83660;SHT30;73632;50.808;3.422;2023-11-19T00:18:25;13.39;89.78
83660;SHT30;73632;50.808;3.422;2023-11-19T00:20:50;13.36;89.90
83660;SHT30;73632;50.808;3.422;2023-11-19T00:23:16;13.32;90.11
83660;SHT30;73632;50.808;3.422;2023-11-19T00:25:41;13.38;89.73
83660;SHT30;73632;50.808;3.422;2023-11-19T00:28:07;13.40;89.14
83660;SHT30;73632;50.808;3.422;2023-11-19T00:30:33;13.42;89.47
83660;SHT30;73632;50.808;3.422;2023-11-19T00:32:58;13.43;89.79
83660;SHT30;73632;50.808;3.422;2023-11-19T00:35:23;13.30;90.35
83660;SHT30;73632;50.808;3.422;2023-11-19T00:37:49;13.22;90.69
83660;SHT30;73632;50.808;3.422;2023-11-19T00:40:16;13.24;90.84
83660;SHT30;73632;50.808;3.422;2023-11-19T00:42:43;13.13;91.31
83660;SHT30;73632;50.808;3.422;2023-11-19T00:45:09;13.12;91.78
83660;SHT30;73632;50.808;3.422;2023-11-19T00:47:35;13.06;91.88
83660;SHT30;73632;50.808;3.422;2023-11-19T00:50:01;13.03;92.08
83660;SHT30;73632;50.808;3.422;2023-11-19T00:52:27;13.02;91.95
83660;SHT30;73632;50.808;3.422;2023-11-19T00:54:52;12.98;92.09
83660;SHT30;73632;50.808;3.422;2023-11-19T00:57:19;12.96;91.85
83660;SHT30;73632;50.808;3.422;2023-11-19T00:59:44;13.02;91.15
83660;SHT30;73632;50.808;3.422;2023-11-19T01:02:10;13.02;91.12
83660;SHT30;73632;50.808;3.422;2023-11-19T01:04:36;13.03;90.70
83660;SHT30;73632;50.808;3.422;2023-11-19T01:07:02;13.01;90.94
83660;SHT30;73632;50.808;3.422;2023-11-19T01:09:31;12.95;90.82
83660;SHT30;73632;50.808;3.422;2023-11-19T01:11:58;12.93;90.58
83660;SHT30;73632;50.808;3.422;2023-11-19T01:14:25;12.96;90.05
83660;SHT30;73632;50.808;3.422;2023-11-19T01:16:51;12.98;89.32
83660;SHT30;73632;50.808;3.422;2023-11-19T01:19:16;12.93;89.31
83660;SHT30;73632;50.808;3.422;2023-11-19T01:21:41;12.81;89.67
83660;SHT30;73632;50.808;3.422;2023-11-19T01:24:07;12.72;89.40
83660;SHT30;73632;50.808;3.422;2023-11-19T01:26:34;12.68;89.25
83660;SHT30;73632;50.808;3.422;2023-11-19T01:29:00;12.62;89.46
83660;SHT30;73632;50.808;3.422;2023-11-19T01:31:26;12.72;88.92
83660;SHT30;73632;50.808;3.422;2023-11-19T01:33:51;12.68;88.95
83660;SHT30;73632;50.808;3.422;2023-11-19T01:36:17;12.69;89.09
83660;SHT30;73632;50.808;3.422;2023-11-19T01:38:42;12.69;88.90
83660;SHT30;73632;50.808;3.422;2023-11-19T01:41:08;12.72;88.31
83660;SHT30;73632;50.808;3.422;2023-11-19T01:43:37;12.68;88.25
83660;SHT30;73632;50.808;3.422;2023-11-19T01:46:05;12.55;88.71
83660;SHT30;73632;50.808;3.422;2023-11-19T01:48:34;12.48;89.16
83660;SHT30;73632;50.808;3.422;2023-11-19T01:51:01;12.47;89.05
83660;SHT30;73632;50.808;3.422;2023-11-19T01:53:28;12.45;89.10
83660;SHT30;73632;50.808;3.422;2023-11-19T01:55:54;12.51;88.97
83660;SHT30;73632;50.808;3.422;2023-11-19T01:58:21;12.49;88.82
83660;SHT30;73632;50.808;3.422;2023-11-19T02:00:46;12.54;88.37
83660;SHT30;73632;50.808;3.422;2023-11-19T02:03:14;12.57;88.46
83660;SHT30;73632;50.808;3.422;2023-11-19T02:05:39;12.47;88.73
83660;SHT30;73632;50.808;3.422;2023-11-19T02:08:05;12.48;88.57
83660;SHT30;73632;50.808;3.422;2023-11-19T02:10:31;12.48;88.51
83660;SHT30;73632;50.808;3.422;2023-11-19T02:12:57;12.51;88.46
83660;SHT30;73632;50.808;3.422;2023-11-19T02:15:23;12.47;88.65
83660;SHT30;73632;50.808;3.422;2023-11-19T02:17:50;12.49;88.27
83660;SHT30;73632;50.808;3.422;2023-11-19T02:20:15;12.48;88.57
83660;SHT30;73632;50.808;3.422;2023-11-19T02:22:41;12.41;88.36
83660;SHT30;73632;50.808;3.422;2023-11-19T02:25:29;12.37;88.30
83660;SHT30;73632;50.808;3.422;2023-11-19T02:27:59;12.36;88.45
83660;SHT30;73632;50.808;3.422;2023-11-19T02:30:25;12.40;88.04
83660;SHT30;73632;50.808;3.422;2023-11-19T02:33:00;12.30;88.10
83660;SHT30;73632;50.808;3.422;2023-11-19T02:35:31;12.30;88.16
83660;SHT30;73632;50.808;3.422;2023-11-19T02:37:57;12.18;88.68
83660;SHT30;73632;50.808;3.422;2023-11-19T02:40:23;12.17;88.59
83660;SHT30;73632;50.808;3.422;2023-11-19T02:42:54;12.13;88.54
83660;SHT30;73632;50.808;3.422;2023-11-19T02:45:22;12.10;88.63
83660;SHT30;73632;50.808;3.422;2023-11-19T02:47:48;12.00;88.96
83660;SHT30;73632;50.808;3.422;2023-11-19T02:50:13;12.03;88.60
83660;SHT30;73632;50.808;3.422;2023-11-19T02:52:43;12.00;88.47
83660;SHT30;73632;50.808;3.422;2023-11-19T02:55:10;11.96;88.66
83660;SHT30;73632;50.808;3.422;2023-11-19T02:57:41;11.96;88.58
83660;SHT30;73632;50.808;3.422;2023-11-19T03:00:17;11.98;88.45
83660;SHT30;73632;50.808;3.422;2023-11-19T03:02:44;11.98;88.28
83660;SHT30;73632;50.808;3.422;2023-11-19T03:05:12;12.03;88.04
83660;SHT30;73632;50.808;3.422;2023-11-19T03:07:43;11.98;87.77
83660;SHT30;73632;50.808;3.422;2023-11-19T03:10:11;12.00;87.79
83660;SHT30;73632;50.808;3.422;2023-11-19T03:12:44;11.94;88.17
83660;SHT30;73632;50.808;3.422;2023-11-19T03:15:11;12.07;87.45
83660;SHT30;73632;50.808;3.422;2023-11-19T03:17:40;12.10;87.76
83660;SHT30;73632;50.808;3.422;2023-11-19T03:20:06;12.18;87.15
83660;SHT30;73632;50.808;3.422;2023-11-19T03:22:36;12.24;87.15
83660;SHT30;73632;50.808;3.422;2023-11-19T03:25:02;12.27;87.06
83660;SHT30;73632;50.808;3.422;2023-11-19T03:27:27;12.41;86.40
83660;SHT30;73632;50.808;3.422;2023-11-19T03:29:52;12.40;86.48
83660;SHT30;73632;50.808;3.422;2023-11-19T03:32:18;12.40;86.41
83660;SHT30;73632;50.808;3.422;2023-11-19T03:34:43;12.34;86.48
83660;SHT30;73632;50.808;3.422;2023-11-19T03:37:08;12.36;86.16
83660;SHT30;73632;50.808;3.422;2023-11-19T03:39:34;12.31;85.96
83660;SHT30;73632;50.808;3.422;2023-11-19T03:41:59;12.23;86.09
83660;SHT30;73632;50.808;3.422;2023-11-19T03:44:26;12.17;85.81
83660;SHT30;73632;50.808;3.422;2023-11-19T03:46:52;12.07;86.23
83660;SHT30;73632;50.808;3.422;2023-11-19T03:49:17;11.97;86.29
83660;SHT30;73632;50.808;3.422;2023-11-19T03:51:43;11.94;86.00
83660;SHT30;73632;50.808;3.422;2023-11-19T03:54:08;11.90;86.10
83660;SHT30;73632;50.808;3.422;2023-11-19T03:56:34;11.84;86.29
83660;SHT30;73632;50.808;3.422;2023-11-19T03:58:59;11.82;86.18
83660;SHT30;73632;50.808;3.422;2023-11-19T04:01:25;11.84;85.74
83660;SHT30;73632;50.808;3.422;2023-11-19T04:03:50;11.79;85.93
83660;SHT30;73632;50.808;3.422;2023-11-19T04:06:15;11.72;85.98
83660;SHT30;73632;50.808;3.422;2023-11-19T04:08:41;11.86;85.14
83660;SHT30;73632;50.808;3.422;2023-11-19T04:11:06;11.83;85.24
83660;SHT30;73632;50.808;3.422;2023-11-19T04:13:34;11.89;84.83
83660;SHT30;73632;50.808;3.422;2023-11-19T04:16:00;11.89;84.81
83660;SHT30;73632;50.808;3.422;2023-11-19T04:18:25;11.86;84.77
83660;SHT30;73632;50.808;3.422;2023-11-19T04:20:50;11.80;84.88
83660;SHT30;73632;50.808;3.422;2023-11-19T04:23:16;11.74;85.22
83660;SHT30;73632;50.808;3.422;2023-11-19T04:25:42;11.66;85.76
83660;SHT30;73632;50.808;3.422;2023-11-19T04:28:07;11.59;86.17
83660;SHT30;73632;50.808;3.422;2023-11-19T04:30:33;11.63;86.15
83660;SHT30;73632;50.808;3.422;2023-11-19T04:32:59;11.65;86.78
83660;SHT30;73632;50.808;3.422;2023-11-19T04:35:24;11.65;86.48
83660;SHT30;73632;50.808;3.422;2023-11-19T04:37:51;11.62;86.70
83660;SHT30;73632;50.808;3.422;2023-11-19T04:40:17;11.60;86.93
83660;SHT30;73632;50.808;3.422;2023-11-19T04:42:43;11.60;86.93
83660;SHT30;73632;50.808;3.422;2023-11-19T04:45:09;11.56;87.35
83660;SHT30;73632;50.808;3.422;2023-11-19T04:47:36;11.47;87.79
83660;SHT30;73632;50.808;3.422;2023-11-19T04:50:02;11.40;88.19
83660;SHT30;73632;50.808;3.422;2023-11-19T04:52:27;11.44;88.18
83660;SHT30;73632;50.808;3.422;2023-11-19T04:54:52;11.53;88.08
83660;SHT30;73632;50.808;3.422;2023-11-19T04:57:18;11.58;87.84
83660;SHT30;73632;50.808;3.422;2023-11-19T04:59:43;11.72;87.25
83660;SHT30;73632;50.808;3.422;2023-11-19T05:02:09;11.73;86.49
83660;SHT30;73632;50.808;3.422;2023-11-19T05:04:34;11.76;86.13
83660;SHT30;73632;50.808;3.422;2023-11-19T05:07:00;11.62;86.68
83660;SHT30;73632;50.808;3.422;2023-11-19T05:09:26;11.47;87.05
83660;SHT30;73632;50.808;3.422;2023-11-19T05:11:51;11.47;87.17
83660;SHT30;73632;50.808;3.422;2023-11-19T05:14:17;11.38;87.57
83660;SHT30;73632;50.808;3.422;2023-11-19T05:16:43;11.33;87.47
83660;SHT30;73632;50.808;3.422;2023-11-19T05:19:09;11.26;87.61
83660;SHT30;73632;50.808;3.422;2023-11-19T05:21:34;11.32;87.12
83660;SHT30;73632;50.808;3.422;2023-11-19T05:24:01;11.22;87.36
83660;SHT30;73632;50.808;3.422;2023-11-19T05:26:29;11.26;87.05
83660;SHT30;73632;50.808;3.422;2023-11-19T05:28:55;11.28;86.86
83660;SHT30;73632;50.808;3.422;2023-11-19T05:31:20;11.22;87.27
83660;SHT30;73632;50.808;3.422;2023-11-19T05:33:46;11.14;87.21
83660;SHT30;73632;50.808;3.422;2023-11-19T05:36:12;11.18;86.95
83660;SHT30;73632;50.808;3.422;2023-11-19T05:38:38;11.09;87.09
83660;SHT30;73632;50.808;3.422;2023-11-19T05:41:04;11.14;87.05
83660;SHT30;73632;50.808;3.422;2023-11-19T05:43:30;11.08;87.02
83660;SHT30;73632;50.808;3.422;2023-11-19T05:45:56;10.98;87.40
83660;SHT30;73632;50.808;3.422;2023-11-19T05:48:21;11.02;87.42
83660;SHT30;73632;50.808;3.422;2023-11-19T05:50:47;11.07;87.65
83660;SHT30;73632;50.808;3.422;2023-11-19T05:53:15;11.11;87.56
83660;SHT30;73632;50.808;3.422;2023-11-19T05:55:40;11.12;87.63
83660;SHT30;73632;50.808;3.422;2023-11-19T05:58:13;11.15;87.55
83660;SHT30;73632;50.808;3.422;2023-11-19T06:00:39;11.11;87.82
83660;SHT30;73632;50.808;3.422;2023-11-19T06:03:06;11.07;87.63
83660;SHT30;73632;50.808;3.422;2023-11-19T06:05:32;11.12;87.38
83660;SHT30;73632;50.808;3.422;2023-11-19T06:07:58;11.01;88.11
83660;SHT30;73632;50.808;3.422;2023-11-19T06:10:23;11.11;87.70
83660;SHT30;73632;50.808;3.422;2023-11-19T06:12:54;11.18;87.60
83660;SHT30;73632;50.808;3.422;2023-11-19T06:15:22;11.23;87.34
83660;SHT30;73632;50.808;3.422;2023-11-19T06:17:47;11.31;87.13
83660;SHT30;73632;50.808;3.422;2023-11-19T06:20:13;11.38;86.80
83660;SHT30;73632;50.808;3.422;2023-11-19T06:22:39;11.39;86.72
83660;SHT30;73632;50.808;3.422;2023-11-19T06:25:07;11.39;86.81
83660;SHT30;73632;50.808;3.422;2023-11-19T06:27:33;11.35;86.73
83660;SHT30;73632;50.808;3.422;2023-11-19T06:29:58;11.36;86.60
83660;SHT30;73632;50.808;3.422;2023-11-19T06:32:24;11.31;86.81
83660;SHT30;73632;50.808;3.422;2023-11-19T06:34:49;11.28;86.86
83660;SHT30;73632;50.808;3.422;2023-11-19T06:37:15;11.22;86.93
83660;SHT30;73632;50.808;3.422;2023-11-19T06:39:40;11.18;87.01
83660;SHT30;73632;50.808;3.422;2023-11-19T06:42:06;11.11;87.04
83660;SHT30;73632;50.808;3.422;2023-11-19T06:44:32;11.09;87.32
83660;SHT30;73632;50.808;3.422;2023-11-19T06:46:58;11.19;86.71
83660;SHT30;73632;50.808;3.422;2023-11-19T06:49:23;11.18;86.79
83660;SHT30;73632;50.808;3.422;2023-11-19T06:51:49;11.21;86.79
83660;SHT30;73632;50.808;3.422;2023-11-19T06:54:15;11.32;86.09
83660;SHT30;73632;50.808;3.422;2023-11-19T06:56:41;11.32;86.02
83660;SHT30;73632;50.808;3.422;2023-11-19T06:59:07;11.28;86.36
83660;SHT30;73632;50.808;3.422;2023-11-19T07:01:36;11.23;86.30
83660;SHT30;73632;50.808;3.422;2023-11-19T07:04:02;11.14;86.73
83660;SHT30;73632;50.808;3.422;2023-11-19T07:06:35;11.12;86.83
83660;SHT30;73632;50.808;3.422;2023-11-19T07:09:02;11.08;87.15
83660;SHT30;73632;50.808;3.422;2023-11-19T07:11:41;11.19;86.51
83660;SHT30;73632;50.808;3.422;2023-11-19T07:14:09;11.21;86.52
83660;SHT30;73632;50.808;3.422;2023-11-19T07:16:35;11.15;86.72
83660;SHT30;73632;50.808;3.422;2023-11-19T07:19:03;11.18;86.64
83660;SHT30;73632;50.808;3.422;2023-11-19T07:21:28;11.16;86.94
83660;SHT30;73632;50.808;3.422;2023-11-19T07:23:57;11.29;86.69
83660;SHT30;73632;50.808;3.422;2023-11-19T07:26:22;11.26;86.89
83660;SHT30;73632;50.808;3.422;2023-11-19T07:28:51;11.23;87.02
83660;SHT30;73632;50.808;3.422;2023-11-19T07:31:17;11.26;86.98
83660;SHT30;73632;50.808;3.422;2023-11-19T07:33:45;11.25;87.10
83660;SHT30;73632;50.808;3.422;2023-11-19T07:36:11;11.25;87.20
83660;SHT30;73632;50.808;3.422;2023-11-19T07:38:37;11.32;87.13
83660;SHT30;73632;50.808;3.422;2023-11-19T07:41:04;11.44;86.57
83660;SHT30;73632;50.808;3.422;2023-11-19T07:43:30;11.55;86.67
83660;SHT30;73632;50.808;3.422;2023-11-19T07:45:55;11.53;86.75
83660;SHT30;73632;50.808;3.422;2023-11-19T07:48:21;11.62;86.67
83660;SHT30;73632;50.808;3.422;2023-11-19T07:50:54;11.59;86.75
83660;SHT30;73632;50.808;3.422;2023-11-19T07:53:20;11.58;87.22
83660;SHT30;73632;50.808;3.422;2023-11-19T07:55:46;11.56;87.50
83660;SHT30;73632;50.808;3.422;2023-11-19T07:58:11;11.56;87.30
83660;SHT30;73632;50.808;3.422;2023-11-19T08:00:37;11.63;87.31
83660;SHT30;73632;50.808;3.422;2023-11-19T08:03:04;11.66;87.09
83660;SHT30;73632;50.808;3.422;2023-11-19T08:05:30;11.63;87.31
83660;SHT30;73632;50.808;3.422;2023-11-19T08:07:56;11.74;86.91
83660;SHT30;73632;50.808;3.422;2023-11-19T08:10:21;11.84;86.71
83660;SHT30;73632;50.808;3.422;2023-11-19T08:12:47;11.96;86.70
83660;SHT30;73632;50.808;3.422;2023-11-19T08:15:13;12.23;86.48
83660;SHT30;73632;50.808;3.422;2023-11-19T08:17:38;12.55;85.24
83660;SHT30;73632;50.808;3.422;2023-11-19T08:20:04;12.58;84.47
83660;SHT30;73632;50.808;3.422;2023-11-19T08:22:30;12.69;83.40
83660;SHT30;73632;50.808;3.422;2023-11-19T08:24:56;12.82;82.80
83660;SHT30;73632;50.808;3.422;2023-11-19T08:27:22;12.88;82.39
83660;SHT30;73632;50.808;3.422;2023-11-19T08:29:53;12.96;82.25
83660;SHT30;73632;50.808;3.422;2023-11-19T08:32:21;12.87;82.28
83660;SHT30;73632;50.808;3.422;2023-11-19T08:34:46;12.65;82.72
83660;SHT30;73632;50.808;3.422;2023-11-19T08:37:11;12.42;83.22
83660;SHT30;73632;50.808;3.422;2023-11-19T08:39:38;12.38;83.56
83660;SHT30;73632;50.808;3.422;2023-11-19T08:42:04;12.14;84.13
83660;SHT30;73632;50.808;3.422;2023-11-19T08:44:29;12.07;84.27
83660;SHT30;73632;50.808;3.422;2023-11-19T08:46:55;11.91;84.97
83660;SHT30;73632;50.808;3.422;2023-11-19T08:49:20;11.94;84.89
83660;SHT30;73632;50.808;3.422;2023-11-19T08:51:45;11.82;85.52
83660;SHT30;73632;50.808;3.422;2023-11-19T08:54:11;12.30;84.41
83660;SHT30;73632;50.808;3.422;2023-11-19T08:56:38;13.23;81.44
83660;SHT30;73632;50.808;3.422;2023-11-19T08:59:04;13.77;79.78
83660;SHT30;73632;50.808;3.422;2023-11-19T09:01:30;14.00;79.02
83660;SHT30;73632;50.808;3.422;2023-11-19T09:03:55;14.08;78.96
83660;SHT30;73632;50.808;3.422;2023-11-19T09:06:20;14.10;78.27
83660;SHT30;73632;50.808;3.422;2023-11-19T09:08:46;14.37;77.95
83660;SHT30;73632;50.808;3.422;2023-11-19T09:11:11;14.20;77.73
83660;SHT30;73632;50.808;3.422;2023-11-19T09:13:37;14.22;78.09
83660;SHT30;73632;50.808;3.422;2023-11-19T09:16:02;13.77;79.16
83660;SHT30;73632;50.808;3.422;2023-11-19T09:18:29;13.84;78.89
83660;SHT30;73632;50.808;3.422;2023-11-19T09:20:54;13.91;78.85
83660;SHT30;73632;50.808;3.422;2023-11-19T09:23:20;13.97;78.87
83660;SHT30;73632;50.808;3.422;2023-11-19T09:25:45;13.81;79.16
83660;SHT30;73632;50.808;3.422;2023-11-19T09:28:11;14.32;77.57
83660;SHT30;73632;50.808;3.422;2023-11-19T09:30:36;14.64;76.89
83660;SHT30;73632;50.808;3.422;2023-11-19T09:33:01;15.00;75.63
83660;SHT30;73632;50.808;3.422;2023-11-19T09:35:27;14.99;75.11
83660;SHT30;73632;50.808;3.422;2023-11-19T09:37:53;14.78;75.97
83660;SHT30;73632;50.808;3.422;2023-11-19T09:40:18;14.75;76.06
83660;SHT30;73632;50.808;3.422;2023-11-19T09:42:44;15.00;76.08
83660;SHT30;73632;50.808;3.422;2023-11-19T09:45:14;14.81;75.79
83660;SHT30;73632;50.808;3.422;2023-11-19T09:47:45;14.06;78.11
83660;SHT30;73632;50.808;3.422;2023-11-19T09:50:18;13.80;79.33
83660;SHT30;73632;50.808;3.422;2023-11-19T09:52:44;13.42;80.01
83660;SHT30;73632;50.808;3.422;2023-11-19T09:55:10;13.39;80.97
83660;SHT30;73632;50.808;3.422;2023-11-19T09:57:37;13.19;81.10
83660;SHT30;73632;50.808;3.422;2023-11-19T10:00:07;13.35;81.27
83660;SHT30;73632;50.808;3.422;2023-11-19T10:02:35;13.27;81.00
83660;SHT30;73632;50.808;3.422;2023-11-19T10:05:05;13.43;80.81
83660;SHT30;73632;50.808;3.422;2023-11-19T10:07:32;13.30;80.93
83660;SHT30;73632;50.808;3.422;2023-11-19T10:10:01;13.19;81.52
83660;SHT30;73632;50.808;3.422;2023-11-19T10:12:29;13.18;81.70
83660;SHT30;73632;50.808;3.422;2023-11-19T10:14:59;13.18;81.57
83660;SHT30;73632;50.808;3.422;2023-11-19T10:17:34;13.20;81.86
83660;SHT30;73632;50.808;3.422;2023-11-19T10:20:00;13.11;81.89
83660;SHT30;73632;50.808;3.422;2023-11-19T10:22:27;13.11;82.12
83660;SHT30;73632;50.808;3.422;2023-11-19T10:24:52;13.01;82.92
83660;SHT30;73632;50.808;3.422;2023-11-19T10:27:18;12.99;83.89
83660;SHT30;73632;50.808;3.422;2023-11-19T10:29:45;12.96;83.65
83660;SHT30;73632;50.808;3.422;2023-11-19T10:32:12;12.88;82.71
83660;SHT30;73632;50.808;3.422;2023-11-19T10:34:38;12.84;83.89
83660;SHT30;73632;50.808;3.422;2023-11-19T10:37:05;13.13;83.49
83660;SHT30;73632;50.808;3.422;2023-11-19T10:39:53;13.09;83.51
83660;SHT30;73632;50.808;3.422;2023-11-19T10:42:19;13.15;83.57
83660;SHT30;73632;50.808;3.422;2023-11-19T10:44:45;13.22;82.96
83660;SHT30;73632;50.808;3.422;2023-11-19T10:47:11;13.23;82.93
83660;SHT30;73632;50.808;3.422;2023-11-19T10:49:38;13.29;83.04
83660;SHT30;73632;50.808;3.422;2023-11-19T10:52:05;13.47;81.97
83660;SHT30;73632;50.808;3.422;2023-11-19T10:54:31;13.56;82.04
83660;SHT30;73632;50.808;3.422;2023-11-19T10:57:01;13.62;81.89
83660;SHT30;73632;50.808;3.422;2023-11-19T10:59:30;13.59;81.70
83660;SHT30;73632;50.808;3.422;2023-11-19T11:01:57;13.49;81.91
83660;SHT30;73632;50.808;3.422;2023-11-19T11:04:23;13.35;82.29
83660;SHT30;73632;50.808;3.422;2023-11-19T11:06:51;13.43;82.48
83660;SHT30;73632;50.808;3.422;2023-11-19T11:09:16;13.40;82.10
83660;SHT30;73632;50.808;3.422;2023-11-19T11:11:46;13.49;81.59
83660;SHT30;73632;50.808;3.422;2023-11-19T11:14:12;13.59;81.08
83660;SHT30;73632;50.808;3.422;2023-11-19T11:16:42;13.86;80.92
83660;SHT30;73632;50.808;3.422;2023-11-19T11:19:09;13.94;78.73
83660;SHT30;73632;50.808;3.422;2023-11-19T11:21:36;14.03;78.17
83660;SHT30;73632;50.808;3.422;2023-11-19T11:32:30;13.69;79.39
83660;SHT30;73632;50.808;3.422;2023-11-19T11:37:46;13.09;82.58
83660;SHT30;73632;50.808;3.422;2023-11-19T11:40:15;12.84;83.93
83660;SHT30;73632;50.808;3.422;2023-11-19T11:42:41;12.72;84.43
83660;SHT30;73632;50.808;3.422;2023-11-19T11:45:13;12.67;84.55
83660;SHT30;73632;50.808;3.422;2023-11-19T11:50:09;12.72;85.54
83660;SHT30;73632;50.808;3.422;2023-11-19T11:55:28;12.85;84.70
83660;SHT30;73632;50.808;3.422;2023-11-19T11:57:59;13.02;84.48
83660;SHT30;73632;50.808;3.422;2023-11-19T12:00:38;13.16;84.21
83660;SHT30;73632;50.808;3.422;2023-11-19T12:03:05;13.22;84.01
83660;SHT30;73632;50.808;3.422;2023-11-19T12:05:32;13.12;84.10
83660;SHT30;73632;50.808;3.422;2023-11-19T12:08:04;13.08;83.88
83660;SHT30;73632;50.808;3.422;2023-11-19T12:10:36;13.06;83.80
83660;SHT30;73632;50.808;3.422;2023-11-19T12:13:05;12.89;84.71
83660;SHT30;73632;50.808;3.422;2023-11-19T12:15:33;12.92;84.97
83660;SHT30;73632;50.808;3.422;2023-11-19T12:17:58;12.84;84.92
83660;SHT30;73632;50.808;3.422;2023-11-19T12:20:25;12.91;85.02
83660;SHT30;73632;50.808;3.422;2023-11-19T12:22:51;12.95;85.03
83660;SHT30;73632;50.808;3.422;2023-11-19T12:25:18;12.87;84.51
83660;SHT30;73632;50.808;3.422;2023-11-19T12:27:47;12.93;84.42
83660;SHT30;73632;50.808;3.422;2023-11-19T12:30:17;13.01;83.86
83660;SHT30;73632;50.808;3.422;2023-11-19T12:32:46;13.02;84.64
83660;SHT30;73632;50.808;3.422;2023-11-19T12:35:12;13.11;82.15
83660;SHT30;73632;50.808;3.422;2023-11-19T12:37:47;13.18;82.31
83660;SHT30;73632;50.808;3.422;2023-11-19T12:40:18;13.29;82.41
83660;SHT30;73632;50.808;3.422;2023-11-19T12:45:13;13.52;79.32
83660;SHT30;73632;50.808;3.422;2023-11-19T12:47:45;13.60;79.77
83660;SHT30;73632;50.808;3.422;2023-11-19T12:50:15;13.59;79.13
83660;SHT30;73632;50.808;3.422;2023-11-19T12:52:42;13.56;79.18
83660;SHT30;73632;50.808;3.422;2023-11-19T12:55:31;13.63;79.31
83660;SHT30;73632;50.808;3.422;2023-11-19T12:57:57;13.69;77.69
83660;SHT30;73632;50.808;3.422;2023-11-19T13:00:25;13.73;77.72
83660;SHT30;73632;50.808;3.422;2023-11-19T13:02:54;13.70;78.40
83660;SHT30;73632;50.808;3.422;2023-11-19T13:08:13;13.54;78.47
83660;SHT30;73632;50.808;3.422;2023-11-19T13:13:13;13.52;77.68
83660;SHT30;73632;50.808;3.422;2023-11-19T13:15:38;13.47;78.03
83660;SHT30;73632;50.808;3.422;2023-11-19T13:18:05;13.47;77.53
83660;SHT30;73632;50.808;3.422;2023-11-19T13:20:32;13.44;77.56
83660;SHT30;73632;50.808;3.422;2023-11-19T13:23:08;13.38;78.45
83660;SHT30;73632;50.808;3.422;2023-11-19T13:25:33;13.30;79.93
83660;SHT30;73632;50.808;3.422;2023-11-19T13:27:59;13.20;80.05
83660;SHT30;73632;50.808;3.422;2023-11-19T13:30:25;13.16;80.13
83660;SHT30;73632;50.808;3.422;2023-11-19T13:32:52;13.18;79.80
83660;SHT30;73632;50.808;3.422;2023-11-19T13:35:18;13.06;81.00
83660;SHT30;73632;50.808;3.422;2023-11-19T13:37:44;12.91;82.06
83660;SHT30;73632;50.808;3.422;2023-11-19T13:40:10;12.85;83.39
83660;SHT30;73632;50.808;3.422;2023-11-19T13:42:41;12.75;82.17
83660;SHT30;73632;50.808;3.422;2023-11-19T13:45:15;12.69;83.06
83660;SHT30;73632;50.808;3.422;2023-11-19T13:47:44;12.72;82.86
83660;SHT30;73632;50.808;3.422;2023-11-19T13:50:13;12.74;82.59
83660;SHT30;73632;50.808;3.422;2023-11-19T13:52:41;12.85;82.14
83660;SHT30;73632;50.808;3.422;2023-11-19T13:55:08;12.98;82.29
83660;SHT30;73632;50.808;3.422;2023-11-19T13:57:40;13.05;81.17
83660;SHT30;73632;50.808;3.422;2023-11-19T14:00:07;13.05;80.50
83660;SHT30;73632;50.808;3.422;2023-11-19T14:02:50;12.95;80.53
83660;SHT30;73632;50.808;3.422;2023-11-19T14:05:16;12.82;80.72
83660;SHT30;73632;50.808;3.422;2023-11-19T14:07:44;12.82;80.94
83660;SHT30;73632;50.808;3.422;2023-11-19T14:10:13;12.79;80.91
83660;SHT30;73632;50.808;3.422;2023-11-19T14:12:39;12.79;80.86
83660;SHT30;73632;50.808;3.422;2023-11-19T14:15:09;12.78;82.30
83660;SHT30;73632;50.808;3.422;2023-11-19T14:17:36;12.67;83.01
83660;SHT30;73632;50.808;3.422;2023-11-19T14:20:05;12.59;83.06
83660;SHT30;73632;50.808;3.422;2023-11-19T14:22:41;12.61;82.99
83660;SHT30;73632;50.808;3.422;2023-11-19T14:25:08;12.67;83.45
83660;SHT30;73632;50.808;3.422;2023-11-19T14:27:39;12.61;84.04
83660;SHT30;73632;50.808;3.422;2023-11-19T14:30:06;12.59;83.66
83660;SHT30;73632;50.808;3.422;2023-11-19T14:32:32;12.62;82.91
83660;SHT30;73632;50.808;3.422;2023-11-19T14:34:58;12.61;82.72
83660;SHT30;73632;50.808;3.422;2023-11-19T14:37:23;12.59;82.71
83660;SHT30;73632;50.808;3.422;2023-11-19T14:39:49;12.55;82.84
83660;SHT30;73632;50.808;3.422;2023-11-19T14:42:16;12.52;82.42
83660;SHT30;73632;50.808;3.422;2023-11-19T14:44:41;12.55;82.35
83660;SHT30;73632;50.808;3.422;2023-11-19T14:47:07;12.59;81.90
83660;SHT30;73632;50.808;3.422;2023-11-19T14:49:34;12.62;81.39
83660;SHT30;73632;50.808;3.422;2023-11-19T14:52:00;12.72;80.94
83660;SHT30;73632;50.808;3.422;2023-11-19T14:54:25;12.69;80.39
83660;SHT30;73632;50.808;3.422;2023-11-19T14:56:51;12.74;79.58
83660;SHT30;73632;50.808;3.422;2023-11-19T14:59:17;12.81;79.91
83660;SHT30;73632;50.808;3.422;2023-11-19T15:01:45;12.72;80.35
83660;SHT30;73632;50.808;3.422;2023-11-19T15:04:10;12.67;81.62
83660;SHT30;73632;50.808;3.422;2023-11-19T15:06:37;12.52;83.05
83660;SHT30;73632;50.808;3.422;2023-11-19T15:09:03;12.38;83.87
83660;SHT30;73632;50.808;3.422;2023-11-19T15:11:31;12.20;84.43
83660;SHT30;73632;50.808;3.422;2023-11-19T15:13:58;12.17;84.51
83660;SHT30;73632;50.808;3.422;2023-11-19T15:16:23;12.04;85.06
83660;SHT30;73632;50.808;3.422;2023-11-19T15:18:59;12.12;84.79
83660;SHT30;73632;50.808;3.422;2023-11-19T15:21:26;12.12;84.68
83660;SHT30;73632;50.808;3.422;2023-11-19T15:23:52;12.06;84.10
83660;SHT30;73632;50.808;3.422;2023-11-19T15:26:17;12.03;83.95
83660;SHT30;73632;50.808;3.422;2023-11-19T15:28:46;12.16;83.23
83660;SHT30;73632;50.808;3.422;2023-11-19T15:31:11;12.20;84.04
83660;SHT30;73632;50.808;3.422;2023-11-19T15:33:38;12.12;85.90
83660;SHT30;73632;50.808;3.422;2023-11-19T15:36:05;11.96;86.40
83660;SHT30;73632;50.808;3.422;2023-11-19T15:38:33;11.77;87.73
83660;SHT30;73632;50.808;3.422;2023-11-19T15:40:59;11.73;87.90
83660;SHT30;73632;50.808;3.422;2023-11-19T15:43:24;11.76;87.66
83660;SHT30;73632;50.808;3.422;2023-11-19T15:45:50;11.62;87.62
83660;SHT30;73632;50.808;3.422;2023-11-19T15:48:15;11.66;87.52
83660;SHT30;73632;50.808;3.422;2023-11-19T15:50:40;11.70;87.35
83660;SHT30;73632;50.808;3.422;2023-11-19T15:53:06;11.70;87.21